createdAt,value
2022-09-21T00:01:24.889Z,12.10
2022-09-21T00:03:58.909Z,12.00
2022-09-21T00:06:35.416Z,11.97
2022-09-21T00:09:04.058Z,11.94
2022-09-21T00:11:31.445Z,11.86
2022-09-21T00:14:08.137Z,11.84
2022-09-21T00:16:35.090Z,11.86
2022-09-21T00:19:02.100Z,11.91
2022-09-21T00:21:29.836Z,11.90
2022-09-21T00:23:57.243Z,11.90
2022-09-21T00:26:25.889Z,11.87
2022-09-21T00:29:00.691Z,11.82
2022-09-21T00:31:28.655Z,11.73
2022-09-21T00:33:56.528Z,11.63
2022-09-21T00:36:24.977Z,11.60
2022-09-21T00:38:56.749Z,11.53
2022-09-21T00:41:24.228Z,11.47
2022-09-21T00:44:27.465Z,11.42
2022-09-21T00:46:57.325Z,11.35
2022-09-21T00:49:24.537Z,11.38
2022-09-21T00:51:58.791Z,11.40
2022-09-21T00:54:31.258Z,11.34
2022-09-21T00:57:03.176Z,11.39
2022-09-21T00:59:38.615Z,11.43
2022-09-21T01:02:05.504Z,11.42
2022-09-21T01:04:41.393Z,11.47
2022-09-21T01:07:12.504Z,11.51
2022-09-21T01:09:41.035Z,11.45
2022-09-21T01:12:24.768Z,11.53
2022-09-21T01:15:14.542Z,11.48
2022-09-21T01:17:44.081Z,11.55
2022-09-21T01:20:35.156Z,11.50
2022-09-21T01:23:19.516Z,11.48
2022-09-21T01:26:12.029Z,11.40
2022-09-21T01:28:56.917Z,11.30
2022-09-21T01:31:34.756Z,11.27
2022-09-21T01:34:08.300Z,11.29
2022-09-21T01:36:35.145Z,11.33
2022-09-21T01:39:14.502Z,11.30
2022-09-21T01:41:42.618Z,11.34
2022-09-21T01:44:14.754Z,11.28
2022-09-21T01:46:42.525Z,11.28
2022-09-21T01:49:11.909Z,11.24
2022-09-21T01:51:43.619Z,11.22
2022-09-21T01:54:14.066Z,11.16
2022-09-21T01:56:44.692Z,11.08
2022-09-21T01:59:17.022Z,11.07
2022-09-21T02:01:53.668Z,11.06
2022-09-21T02:04:20.155Z,11.06
2022-09-21T02:06:47.749Z,11.06
2022-09-21T02:09:14.532Z,10.99
2022-09-21T02:11:43.906Z,10.96
2022-09-21T02:14:17.080Z,10.92
2022-09-21T02:16:55.340Z,10.85
2022-09-21T02:19:45.121Z,10.93
2022-09-21T02:22:21.967Z,10.98
2022-09-21T02:24:53.341Z,10.91
2022-09-21T02:27:36.416Z,10.96
2022-09-21T02:30:08.926Z,10.88
2022-09-21T02:32:51.602Z,10.91
2022-09-21T02:35:33.254Z,10.88
2022-09-21T02:38:20.261Z,10.78
2022-09-21T02:40:54.089Z,10.75
2022-09-21T02:43:45.391Z,10.65
2022-09-21T02:46:27.691Z,10.55
2022-09-21T02:48:57.612Z,10.53
2022-09-21T02:51:37.412Z,10.41
2022-09-21T02:54:04.932Z,10.44
2022-09-21T02:56:31.427Z,10.44
2022-09-21T02:59:02.088Z,10.45
2022-09-21T03:01:29.301Z,10.46
2022-09-21T03:03:55.729Z,10.42
2022-09-21T03:06:22.137Z,10.44
2022-09-21T03:08:48.807Z,10.42
2022-09-21T03:11:19.342Z,10.39
2022-09-21T03:13:46.093Z,10.40
2022-09-21T03:16:12.950Z,10.42
2022-09-21T03:18:40.336Z,10.33
2022-09-21T03:21:07.163Z,10.41
2022-09-21T03:23:33.559Z,10.40
2022-09-21T03:26:00.030Z,10.32
2022-09-21T03:28:26.658Z,10.26
2022-09-21T03:30:53.145Z,10.20
2022-09-21T03:33:20.985Z,10.21
2022-09-21T03:35:50.921Z,10.17
2022-09-21T03:38:18.193Z,10.12
2022-09-21T03:40:46.225Z,10.09
2022-09-21T03:43:13.178Z,10.14
2022-09-21T03:45:42.012Z,10.17
2022-09-21T03:48:09.474Z,10.13
2022-09-21T03:50:35.970Z,10.15
2022-09-21T03:53:02.541Z,10.14
2022-09-21T03:55:29.808Z,10.14
2022-09-21T03:57:56.218Z,10.17
2022-09-21T04:00:22.629Z,10.13
2022-09-21T04:02:49.099Z,10.17
2022-09-21T04:05:16.324Z,10.18
2022-09-21T04:07:45.664Z,10.14
2022-09-21T04:10:14.701Z,10.09
2022-09-21T04:12:43.322Z,10.09
2022-09-21T04:15:14.842Z,10.13
2022-09-21T04:17:41.227Z,10.16
2022-09-21T04:20:08.948Z,10.18
2022-09-21T04:22:39.949Z,10.16
2022-09-21T04:25:10.438Z,10.25
2022-09-21T04:27:37.021Z,10.20
2022-09-21T04:30:03.872Z,10.17
2022-09-21T04:32:30.241Z,10.16
2022-09-21T04:34:56.695Z,10.08
2022-09-21T04:37:23.087Z,10.06
2022-09-21T04:39:49.562Z,9.97
2022-09-21T04:42:15.950Z,9.87
2022-09-21T04:44:42.383Z,9.81
2022-09-21T04:47:08.789Z,9.78
2022-09-21T04:49:35.219Z,9.82
2022-09-21T04:52:01.817Z,9.76
2022-09-21T04:54:28.220Z,9.73
2022-09-21T04:56:54.754Z,9.73
2022-09-21T04:59:21.301Z,9.75
2022-09-21T05:01:47.739Z,9.82
2022-09-21T05:04:14.250Z,9.76
2022-09-21T05:06:40.672Z,9.78
2022-09-21T05:09:25.804Z,9.81
2022-09-21T05:11:52.887Z,9.86
2022-09-21T05:14:19.285Z,9.97
2022-09-21T05:16:49.926Z,10.02
2022-09-21T05:19:17.228Z,9.96
2022-09-21T05:21:43.794Z,9.92
2022-09-21T05:24:10.345Z,9.96
2022-09-21T05:26:37.821Z,9.82
2022-09-21T05:29:04.831Z,9.89
2022-09-21T05:31:46.127Z,9.95
2022-09-21T05:34:25.186Z,9.94
2022-09-21T05:36:58.543Z,9.87
2022-09-21T05:39:25.202Z,9.97
2022-09-21T05:41:51.760Z,10.04
2022-09-21T05:44:18.375Z,10.12
2022-09-21T05:47:11.579Z,10.21
2022-09-21T05:50:15.648Z,10.13
2022-09-21T05:52:58.800Z,10.22
2022-09-21T05:55:33.792Z,10.28
2022-09-21T05:58:37.791Z,10.44
2022-09-21T06:01:23.607Z,10.42
2022-09-21T06:03:50.292Z,10.39
2022-09-21T06:06:18.307Z,10.46
2022-09-21T06:08:44.672Z,10.57
2022-09-21T06:11:11.442Z,10.54
2022-09-21T06:13:38.095Z,10.65
2022-09-21T06:16:04.803Z,10.67
2022-09-21T06:18:31.339Z,10.76
2022-09-21T06:20:57.756Z,10.81
2022-09-21T06:23:24.219Z,10.92
2022-09-21T06:25:58.189Z,11.00
2022-09-21T06:28:25.171Z,11.12
2022-09-21T06:30:53.213Z,11.26
2022-09-21T06:33:23.636Z,11.30
2022-09-21T06:35:54.810Z,11.44
2022-09-21T06:38:21.677Z,11.48
2022-09-21T06:40:48.180Z,11.58
2022-09-21T06:43:14.688Z,11.62
2022-09-21T06:45:41.290Z,11.74
2022-09-21T06:48:08.062Z,11.85
2022-09-21T06:50:34.919Z,11.96
2022-09-21T06:53:02.556Z,12.12
2022-09-21T06:55:30.120Z,12.16
2022-09-21T06:58:01.881Z,12.31
2022-09-21T07:00:28.636Z,12.40
2022-09-21T07:02:55.170Z,12.53
2022-09-21T07:05:21.566Z,12.68
2022-09-21T07:07:53.271Z,12.67
2022-09-21T07:10:20.822Z,12.86
2022-09-21T07:12:47.510Z,13.00
2022-09-21T07:15:15.511Z,13.14
2022-09-21T07:17:51.809Z,13.36
2022-09-21T07:20:18.771Z,13.53
2022-09-21T07:22:45.203Z,13.67
2022-09-21T07:25:11.806Z,13.89
2022-09-21T07:27:38.311Z,14.14
2022-09-21T07:30:05.645Z,14.31
2022-09-21T07:32:33.805Z,14.41
2022-09-21T07:35:04.290Z,14.64
2022-09-21T07:37:38.709Z,14.84
2022-09-21T07:40:11.063Z,15.02
2022-09-21T07:42:40.888Z,15.23
2022-09-21T07:45:11.253Z,15.39
2022-09-21T07:47:42.487Z,15.69
2022-09-21T07:50:12.414Z,15.82
2022-09-21T07:52:45.287Z,15.88
2022-09-21T07:55:19.961Z,15.84
2022-09-21T07:58:15.422Z,16.16
2022-09-21T08:00:44.727Z,16.28
2022-09-21T08:03:15.072Z,16.46
2022-09-21T08:05:41.800Z,16.57
2022-09-21T08:08:09.022Z,16.69
2022-09-21T08:10:36.073Z,16.90
2022-09-21T08:13:02.710Z,16.92
2022-09-21T08:15:48.779Z,17.10
2022-09-21T08:18:15.552Z,17.24
2022-09-21T08:20:42.299Z,17.34
2022-09-21T08:23:08.691Z,17.21
2022-09-21T08:25:35.362Z,17.54
2022-09-21T08:28:06.117Z,17.75
2022-09-21T08:30:35.378Z,17.66
2022-09-21T08:33:02.374Z,17.83
2022-09-21T08:35:28.948Z,17.88
2022-09-21T08:37:55.422Z,18.07
2022-09-21T08:40:22.044Z,18.17
2022-09-21T08:43:43.349Z,18.18
2022-09-21T08:46:15.486Z,18.31
2022-09-21T08:48:54.301Z,18.53
2022-09-21T08:51:23.801Z,18.59
2022-09-21T08:53:52.981Z,18.70
2022-09-21T08:56:20.571Z,18.76
2022-09-21T08:58:47.008Z,18.82
2022-09-21T09:01:44.653Z,19.01
2022-09-21T09:04:13.960Z,19.21
2022-09-21T09:06:58.557Z,19.17
2022-09-21T09:09:44.511Z,19.26
2022-09-21T09:12:35.980Z,19.38
2022-09-21T09:15:17.632Z,19.43
2022-09-21T09:17:56.411Z,19.43
2022-09-21T09:20:31.539Z,19.40
2022-09-21T09:23:13.061Z,19.30
2022-09-21T09:25:41.828Z,19.56
2022-09-21T09:28:24.703Z,19.31
2022-09-21T09:31:01.549Z,19.40
2022-09-21T09:33:38.174Z,19.55
2022-09-21T09:36:09.890Z,19.75
2022-09-21T09:38:49.138Z,19.85
2022-09-21T09:41:46.553Z,19.95
2022-09-21T09:44:31.725Z,20.09
2022-09-21T09:47:27.941Z,20.08
2022-09-21T09:50:06.720Z,20.16
2022-09-21T09:52:33.434Z,20.09
2022-09-21T09:55:00.744Z,20.34
2022-09-21T09:57:31.740Z,20.16
2022-09-21T10:00:01.337Z,20.15
2022-09-21T10:02:29.303Z,20.26
2022-09-21T10:05:18.294Z,20.16
2022-09-21T10:07:48.811Z,20.37
2022-09-21T10:10:33.653Z,20.53
2022-09-21T10:13:33.400Z,20.62
2022-09-21T10:16:18.210Z,20.66
2022-09-21T10:18:58.866Z,20.79
2022-09-21T10:21:39.799Z,20.84
2022-09-21T10:24:08.163Z,20.85
2022-09-21T10:26:54.514Z,20.81
2022-09-21T10:29:23.911Z,20.80
2022-09-21T10:31:58.163Z,21.03
2022-09-21T10:34:27.311Z,21.16
2022-09-21T10:36:56.169Z,21.50
2022-09-21T10:39:32.962Z,21.22
2022-09-21T10:42:03.595Z,21.13
2022-09-21T10:44:37.626Z,21.14
2022-09-21T10:47:16.921Z,20.82
2022-09-21T10:49:47.190Z,20.68
2022-09-21T10:52:13.976Z,20.53
2022-09-21T10:54:41.551Z,20.64
2022-09-21T10:57:09.916Z,20.81
2022-09-21T10:59:37.294Z,20.94
2022-09-21T11:02:23.726Z,21.11
2022-09-21T11:04:54.262Z,21.34
2022-09-21T11:07:29.220Z,21.35
2022-09-21T11:10:16.940Z,21.64
2022-09-21T11:12:59.594Z,21.76
2022-09-21T11:15:52.232Z,21.72
2022-09-21T11:18:35.864Z,21.79
2022-09-21T11:21:13.653Z,21.74
2022-09-21T11:24:03.416Z,21.74
2022-09-21T11:26:51.897Z,21.95
2022-09-21T11:29:23.283Z,21.85
2022-09-21T11:32:05.870Z,21.71
2022-09-21T11:35:01.749Z,21.49
2022-09-21T11:38:06.042Z,21.35
2022-09-21T11:40:32.833Z,21.33
2022-09-21T11:43:25.038Z,21.01
2022-09-21T11:45:58.880Z,21.13
2022-09-21T11:49:02.748Z,21.30
2022-09-21T11:51:41.459Z,21.50
2022-09-21T11:54:24.067Z,21.52
2022-09-21T11:56:56.037Z,21.61
2022-09-21T11:59:38.785Z,21.71
2022-09-21T12:02:26.778Z,21.69
2022-09-21T12:05:04.352Z,21.77
2022-09-21T12:07:42.871Z,21.93
2022-09-21T12:10:33.539Z,22.01
2022-09-21T12:13:08.247Z,22.22
2022-09-21T12:15:38.195Z,22.45
2022-09-21T12:18:41.422Z,22.45
2022-09-21T12:21:26.668Z,21.95
2022-09-21T12:23:56.330Z,21.95
2022-09-21T12:26:29.944Z,22.06
2022-09-21T12:29:00.996Z,22.21
2022-09-21T12:31:35.985Z,22.29
2022-09-21T12:34:24.863Z,22.39
2022-09-21T12:37:08.711Z,22.25
2022-09-21T12:39:56.363Z,22.44
2022-09-21T12:43:03.721Z,22.70
2022-09-21T12:45:34.007Z,22.70
2022-09-21T12:48:04.451Z,22.72
2022-09-21T12:50:48.641Z,22.76
2022-09-21T12:53:22.281Z,22.72
2022-09-21T12:56:06.504Z,22.49
2022-09-21T12:58:51.385Z,22.30
2022-09-21T13:01:31.357Z,22.55
2022-09-21T13:04:13.191Z,22.84
2022-09-21T13:06:56.703Z,22.84
2022-09-21T13:09:24.098Z,22.67
2022-09-21T13:11:56.917Z,22.77
2022-09-21T13:14:34.704Z,22.54
2022-09-21T13:17:03.026Z,21.97
2022-09-21T13:19:32.849Z,21.99
2022-09-21T13:22:19.823Z,22.13
2022-09-21T13:25:02.914Z,22.27
2022-09-21T13:28:00.725Z,22.24
2022-09-21T13:30:36.164Z,22.05
2022-09-21T13:33:05.167Z,21.85
2022-09-21T13:36:02.643Z,21.53
2022-09-21T13:38:41.269Z,21.45
2022-09-21T13:41:19.780Z,21.50
2022-09-21T13:44:04.366Z,21.58
2022-09-21T13:46:34.810Z,21.42
2022-09-21T13:49:13.897Z,21.21
2022-09-21T13:52:05.885Z,21.77
2022-09-21T13:54:35.278Z,21.87
2022-09-21T13:57:16.302Z,22.14
2022-09-21T13:59:44.547Z,22.20
2022-09-21T14:02:35.256Z,22.26
2022-09-21T14:05:31.439Z,22.61
2022-09-21T14:08:00.143Z,22.84
2022-09-21T14:10:35.779Z,22.82
2022-09-21T14:13:07.393Z,23.10
2022-09-21T14:15:36.851Z,23.01
2022-09-21T14:18:16.240Z,23.15
2022-09-21T14:21:08.330Z,23.27
2022-09-21T14:23:36.547Z,23.00
2022-09-21T14:26:20.722Z,22.87
2022-09-21T14:28:51.633Z,22.83
2022-09-21T14:31:26.265Z,22.95
2022-09-21T14:33:57.718Z,22.84
2022-09-21T14:36:41.443Z,22.99
2022-09-21T14:39:17.628Z,22.83
2022-09-21T14:41:45.989Z,22.85
2022-09-21T14:44:21.853Z,22.76
2022-09-21T14:47:11.259Z,22.43
2022-09-21T14:50:15.058Z,22.59
2022-09-21T14:52:53.052Z,22.36
2022-09-21T14:55:31.728Z,21.74
2022-09-21T14:58:36.794Z,21.68
2022-09-21T15:01:22.168Z,21.70
2022-09-21T15:04:16.575Z,21.74
2022-09-21T15:07:17.003Z,21.53
2022-09-21T15:10:35.725Z,21.61
2022-09-21T15:13:11.902Z,21.49
2022-09-21T15:15:51.660Z,21.41
2022-09-21T15:18:22.502Z,21.33
2022-09-21T15:21:02.271Z,21.31
2022-09-21T15:23:31.867Z,21.23
2022-09-21T15:26:09.039Z,21.23
2022-09-21T15:29:07.848Z,21.17
2022-09-21T15:31:48.856Z,21.05
2022-09-21T15:34:15.389Z,21.01
2022-09-21T15:36:43.053Z,20.92
2022-09-21T15:39:28.363Z,20.90
2022-09-21T15:42:10.255Z,20.83
2022-09-21T15:44:38.335Z,20.87
2022-09-21T15:47:09.074Z,20.83
2022-09-21T15:49:35.879Z,20.78
2022-09-21T15:52:13.777Z,20.64
2022-09-21T15:54:42.582Z,20.59
2022-09-21T15:57:38.412Z,20.60
2022-09-21T16:00:08.311Z,20.59
2022-09-21T16:02:37.843Z,20.60
2022-09-21T16:05:05.552Z,20.56
2022-09-21T16:07:37.052Z,20.39
2022-09-21T16:10:34.555Z,20.21
2022-09-21T16:13:38.760Z,20.19
2022-09-21T16:16:12.040Z,20.10
2022-09-21T16:18:46.251Z,20.10
2022-09-21T16:21:23.847Z,20.09
2022-09-21T16:23:52.768Z,20.00
2022-09-21T16:26:22.859Z,19.85
2022-09-21T16:28:49.955Z,19.71
2022-09-21T16:31:28.818Z,19.61
2022-09-21T16:33:55.402Z,19.56
2022-09-21T16:36:34.547Z,19.47
2022-09-21T16:39:05.963Z,19.45
2022-09-21T16:41:41.333Z,19.37
2022-09-21T16:44:15.440Z,19.33
2022-09-21T16:46:43.971Z,19.17
2022-09-21T16:49:16.777Z,19.00
2022-09-21T16:51:43.201Z,18.79
2022-09-21T16:54:09.745Z,18.68
2022-09-21T16:56:36.223Z,18.48
2022-09-21T16:59:10.411Z,18.33
2022-09-21T17:01:36.901Z,18.15
2022-09-21T17:04:03.305Z,17.99
2022-09-21T17:06:30.693Z,17.84
2022-09-21T17:08:57.143Z,17.64
2022-09-21T17:11:24.067Z,17.54
2022-09-21T17:13:50.840Z,17.43
2022-09-21T17:16:18.713Z,17.32
2022-09-21T17:18:46.561Z,17.12
2022-09-21T17:21:13.749Z,17.00
2022-09-21T17:23:41.285Z,16.85
2022-09-21T17:26:17.539Z,16.77
2022-09-21T17:28:44.657Z,16.69
2022-09-21T17:31:16.495Z,16.55
2022-09-21T17:33:43.798Z,16.46
2022-09-21T17:36:14.364Z,16.33
2022-09-21T17:38:42.356Z,16.27
2022-09-21T17:41:34.789Z,16.13
2022-09-21T17:44:14.014Z,16.13
2022-09-21T17:46:47.946Z,16.04
2022-09-21T17:49:14.625Z,15.88
2022-09-21T17:52:00.164Z,15.79
2022-09-21T17:54:26.935Z,15.64
2022-09-21T17:56:59.545Z,15.52
2022-09-21T17:59:37.432Z,15.42
2022-09-21T18:02:24.390Z,15.33
2022-09-21T18:04:56.032Z,15.22
2022-09-21T18:07:25.193Z,15.15
2022-09-21T18:09:52.109Z,15.03
2022-09-21T18:12:50.138Z,14.87
2022-09-21T18:15:27.674Z,14.83
2022-09-21T18:18:12.875Z,14.78
2022-09-21T18:21:02.273Z,14.64
2022-09-21T18:23:54.920Z,14.59
2022-09-21T18:26:23.384Z,14.56
2022-09-21T18:28:57.916Z,14.55
2022-09-21T18:31:50.269Z,14.42
2022-09-21T18:34:16.563Z,14.48
2022-09-21T18:36:48.916Z,14.49
2022-09-21T18:39:26.079Z,14.49
2022-09-21T18:42:19.777Z,14.42
2022-09-21T18:45:14.340Z,14.55
2022-09-21T18:48:12.719Z,14.61
2022-09-21T18:50:48.270Z,14.69
2022-09-21T18:53:24.414Z,14.67
2022-09-21T18:55:52.111Z,14.67
2022-09-21T18:58:18.897Z,14.55
2022-09-21T19:00:45.458Z,14.44
2022-09-21T19:03:19.041Z,14.24
2022-09-21T19:06:06.081Z,14.15
2022-09-21T19:08:54.850Z,14.11
2022-09-21T19:11:34.744Z,14.04
2022-09-21T19:14:24.250Z,14.04
2022-09-21T19:16:58.741Z,13.98
2022-09-21T19:19:44.017Z,13.93
2022-09-21T19:22:35.721Z,13.90
2022-09-21T19:25:25.626Z,13.85
2022-09-21T19:28:00.394Z,13.85
2022-09-21T19:30:27.119Z,13.73
2022-09-21T19:32:58.490Z,13.79
2022-09-21T19:35:27.667Z,13.69
2022-09-21T19:37:56.761Z,13.63
2022-09-21T19:40:27.635Z,13.58
2022-09-21T19:43:20.637Z,13.52
2022-09-21T19:46:05.921Z,13.53
2022-09-21T19:48:43.099Z,13.45
2022-09-21T19:51:38.854Z,13.42
2022-09-21T19:54:31.947Z,13.35
2022-09-21T19:57:17.572Z,13.35
2022-09-21T19:59:44.413Z,13.29
2022-09-21T20:02:15.515Z,13.25
2022-09-21T20:04:52.490Z,13.33
2022-09-21T20:07:36.209Z,13.26
2022-09-21T20:10:22.176Z,13.11
2022-09-21T20:13:04.909Z,13.16
2022-09-21T20:15:37.037Z,13.19
2022-09-21T20:18:10.287Z,13.06
2022-09-21T20:20:38.064Z,13.07
2022-09-21T20:23:04.918Z,13.05
2022-09-21T20:25:34.993Z,13.10
2022-09-21T20:28:03.796Z,13.02
2022-09-21T20:30:33.370Z,12.94
2022-09-21T20:33:10.771Z,12.92
2022-09-21T20:35:37.204Z,12.80
2022-09-21T20:38:04.602Z,12.77
2022-09-21T20:40:32.113Z,12.79
2022-09-21T20:43:01.062Z,12.76
2022-09-21T20:45:28.379Z,12.80
2022-09-21T20:47:55.375Z,12.74
2022-09-21T20:50:26.703Z,12.69
2022-09-21T20:52:53.117Z,12.60
2022-09-21T20:55:20.358Z,12.55
2022-09-21T20:57:46.884Z,12.55
2022-09-21T21:00:15.154Z,12.48
2022-09-21T21:02:41.960Z,12.47
2022-09-21T21:05:10.375Z,12.47
2022-09-21T21:07:36.883Z,12.48
2022-09-21T21:10:03.983Z,12.43
2022-09-21T21:12:30.931Z,12.46
2022-09-21T21:14:59.123Z,12.36
2022-09-21T21:17:25.619Z,12.28
2022-09-21T21:19:52.133Z,12.38
2022-09-21T21:22:18.571Z,12.37
2022-09-21T21:24:45.110Z,12.40
2022-09-21T21:27:17.179Z,12.44
2022-09-21T21:29:46.339Z,12.40
2022-09-21T21:32:14.396Z,12.30
2022-09-21T21:34:40.995Z,12.20
2022-09-21T21:37:07.588Z,12.19
2022-09-21T21:39:33.983Z,12.27
2022-09-21T21:42:00.414Z,12.17
2022-09-21T21:44:27.122Z,12.17
2022-09-21T21:46:53.874Z,12.21
2022-09-21T21:49:21.016Z,12.14
2022-09-21T21:51:49.259Z,12.08
2022-09-21T21:54:18.307Z,12.10
2022-09-21T21:56:45.730Z,12.12
2022-09-21T21:59:17.433Z,12.17
2022-09-21T22:01:44.326Z,12.09
2022-09-21T22:04:10.874Z,12.08
2022-09-21T22:06:39.136Z,12.02
2022-09-21T22:09:09.358Z,12.00
2022-09-21T22:11:36.136Z,12.06
2022-09-21T22:14:03.742Z,12.07
2022-09-21T22:16:31.930Z,12.07
2022-09-21T22:18:58.753Z,11.98
2022-09-21T22:21:28.132Z,11.93
2022-09-21T22:24:00.192Z,11.93
2022-09-21T22:26:27.931Z,11.92
2022-09-21T22:28:56.494Z,11.97
2022-09-21T22:31:26.430Z,12.00
2022-09-21T22:33:53.887Z,11.98
2022-09-21T22:36:24.560Z,11.99
2022-09-21T22:38:51.017Z,11.95
2022-09-21T22:41:19.479Z,11.90
2022-09-21T22:43:46.895Z,11.83
2022-09-21T22:46:14.262Z,11.77
2022-09-21T22:48:40.718Z,11.74
2022-09-21T22:51:07.271Z,11.86
2022-09-21T22:53:33.687Z,11.82
2022-09-21T22:56:01.444Z,11.80
2022-09-21T22:58:27.860Z,11.74
2022-09-21T23:01:24.997Z,11.69
2022-09-21T23:03:54.697Z,11.75
2022-09-21T23:06:22.848Z,11.70
2022-09-21T23:08:50.519Z,11.69
2022-09-21T23:11:31.787Z,11.59
2022-09-21T23:13:59.424Z,11.59
2022-09-21T23:16:27.524Z,11.56
2022-09-21T23:18:54.294Z,11.47
2022-09-21T23:21:22.864Z,11.57
2022-09-21T23:23:49.474Z,11.57
2022-09-21T23:26:24.068Z,11.52
2022-09-21T23:28:52.507Z,11.55
2022-09-21T23:31:19.522Z,11.64
2022-09-21T23:33:48.271Z,11.66
2022-09-21T23:36:16.672Z,11.67
2022-09-21T23:38:43.674Z,11.65
2022-09-21T23:41:18.552Z,11.66
2022-09-21T23:43:45.924Z,11.61
2022-09-21T23:46:14.929Z,11.55
2022-09-21T23:48:41.825Z,11.55
2022-09-21T23:51:08.772Z,11.55
2022-09-21T23:53:36.545Z,11.53
2022-09-21T23:56:04.020Z,11.54
2022-09-21T23:58:30.475Z,11.53
